Time,TemperatureF,DewpointF,PressureIn,WindDirection,WindDirectionDegrees,WindSpeedMPH,WindSpeedGustMPH,Humidity,HourlyPrecipIn,Conditions,Clouds,dailyrainin,SolarRadiationWatts/m^2,SoftwareType,DateUTC
2013-12-30 00:02:00,36.0,34.0,-100.00,NW,310,10.0,19.0,93,0.00,,,1.52,0.000000,,2013-12-30 05:02:00,
2013-12-30 00:12:00,36.0,34.0,-100.00,NW,310,10.0,19.0,93,0.00,,,1.52,0.000000,,2013-12-30 05:12:00,
2013-12-30 00:43:00,35.0,32.0,-100.00,NW,307,10.0,22.0,89,0.00,,,1.52,0.000000,,2013-12-30 05:43:00,
2013-12-30 00:53:00,35.0,32.0,-100.00,NW,307,10.0,22.0,89,0.00,,,1.52,0.000000,,2013-12-30 05:53:00,
2013-12-30 01:02:00,35.0,32.0,-100.00,NW,307,10.0,22.0,89,0.00,,,1.52,0.000000,,2013-12-30 06:02:00,
2013-12-30 01:12:00,35.0,32.0,-100.00,NW,307,10.0,22.0,89,0.00,,,1.52,0.000000,,2013-12-30 06:12:00,
2013-12-30 01:43:00,34.0,32.0,-100.00,NW,313,12.0,21.0,94,0.00,,,1.52,0.000000,,2013-12-30 06:43:00,
2013-12-30 01:53:00,34.0,32.0,-100.00,NW,313,12.0,21.0,94,0.00,,,1.52,0.000000,,2013-12-30 06:53:00,
2013-12-30 02:02:00,34.0,32.0,-100.00,NW,313,12.0,21.0,94,0.00,,,1.52,0.000000,,2013-12-30 07:02:00,
2013-12-30 02:11:00,34.0,32.0,-100.00,NW,313,12.0,21.0,94,0.00,,,1.52,0.000000,,2013-12-30 07:11:00,
2013-12-30 02:42:00,35.0,32.0,-100.00,NW,307,10.0,22.0,88,0.00,,,1.52,0.000000,,2013-12-30 07:42:00,
2013-12-30 02:52:00,35.0,32.0,-100.00,NW,307,10.0,22.0,88,0.00,,,1.52,0.000000,,2013-12-30 07:52:00,
2013-12-30 03:02:00,35.0,32.0,-100.00,NW,307,10.0,22.0,88,0.00,,,1.52,0.000000,,2013-12-30 08:02:00,
2013-12-30 03:11:00,35.0,32.0,-100.00,NW,307,10.0,22.0,88,0.00,,,1.52,0.000000,,2013-12-30 08:11:00,
2013-12-30 03:42:00,35.0,31.0,-100.00,WNW,301,10.0,22.0,84,0.00,,,1.50,0.000000,,2013-12-30 08:42:00,
2013-12-30 03:52:00,35.0,31.0,-100.00,WNW,301,10.0,22.0,84,0.00,,,1.50,0.000000,,2013-12-30 08:52:00,
2013-12-30 04:03:00,35.0,31.0,-100.00,WNW,301,10.0,22.0,84,0.00,,,1.50,0.000000,,2013-12-30 09:03:00,
2013-12-30 04:11:00,35.0,31.0,-100.00,WNW,301,10.0,22.0,84,0.00,,,1.50,0.000000,,2013-12-30 09:11:00,
2013-12-30 04:43:00,35.0,30.0,-100.00,WNW,300,7.0,17.0,82,0.00,,,1.40,0.000000,,2013-12-30 09:43:00,
2013-12-30 04:53:00,35.0,30.0,-100.00,WNW,300,7.0,17.0,82,0.00,,,1.40,0.000000,,2013-12-30 09:53:00,
2013-12-30 05:03:00,35.0,30.0,-100.00,WNW,300,7.0,17.0,82,0.00,,,1.40,0.000000,,2013-12-30 10:03:00,
2013-12-30 05:12:00,35.0,30.0,-100.00,WNW,300,7.0,17.0,82,0.00,,,1.40,0.000000,,2013-12-30 10:12:00,
2013-12-30 05:43:00,34.0,31.0,-100.00,NW,315,7.0,15.0,89,0.00,,,1.33,0.000000,,2013-12-30 10:43:00,
2013-12-30 05:53:00,34.0,31.0,-100.00,NW,315,7.0,15.0,89,0.00,,,1.33,0.000000,,2013-12-30 10:53:00,
2013-12-30 06:02:00,34.0,31.0,-100.00,NW,315,7.0,15.0,89,0.00,,,1.33,0.000000,,2013-12-30 11:02:00,
2013-12-30 06:12:00,34.0,31.0,-100.00,NW,315,7.0,15.0,89,0.00,,,1.33,0.000000,,2013-12-30 11:12:00,
2013-12-30 06:43:00,32.0,31.0,-100.00,NW,317,8.0,16.0,97,0.00,,,1.16,0.000000,,2013-12-30 11:43:00,
2013-12-30 06:53:00,32.0,31.0,-100.00,NW,317,8.0,16.0,97,0.00,,,1.16,0.000000,,2013-12-30 11:53:00,
2013-12-30 07:02:00,32.0,31.0,-100.00,NW,317,8.0,16.0,97,0.00,,,1.16,0.000000,,2013-12-30 12:02:00,
2013-12-30 07:12:00,32.0,31.0,-100.00,NW,317,8.0,16.0,97,0.00,,,1.16,0.000000,,2013-12-30 12:12:00,
2013-12-30 07:42:00,30.0,29.0,-100.00,NW,316,7.0,14.0,96,0.00,,,0.93,0.000000,,2013-12-30 12:42:00,
2013-12-30 07:52:00,30.0,29.0,-100.00,NW,316,7.0,14.0,96,0.00,,,0.93,0.000000,,2013-12-30 12:52:00,
2013-12-30 08:01:00,30.0,29.0,-100.00,NW,316,7.0,14.0,96,0.00,,,0.93,0.000000,,2013-12-30 13:01:00,
2013-12-30 08:11:00,30.0,29.0,-100.00,NW,316,7.0,14.0,96,0.00,,,0.93,0.000000,,2013-12-30 13:11:00,
2013-12-30 08:42:00,29.0,28.0,-100.00,NW,316,6.0,16.0,97,0.00,,,0.63,0.000000,,2013-12-30 13:42:00,
2013-12-30 08:52:00,29.0,28.0,-100.00,NW,316,6.0,16.0,97,0.00,,,0.63,0.000000,,2013-12-30 13:52:00,
2013-12-30 09:02:00,29.0,28.0,-100.00,NW,316,6.0,16.0,97,0.00,,,0.63,0.000000,,2013-12-30 14:02:00,
2013-12-30 09:12:00,29.0,28.0,-100.00,NW,316,6.0,16.0,97,0.00,,,0.63,0.000000,,2013-12-30 14:12:00,
2013-12-30 09:42:00,28.0,28.0,-100.00,NW,315,8.0,13.0,98,0.00,,,0.32,6.000000,,2013-12-30 14:42:00,
2013-12-30 09:52:00,28.0,28.0,-100.00,NW,315,8.0,13.0,98,0.00,,,0.32,6.000000,,2013-12-30 14:52:00,
2013-12-30 10:02:00,28.0,28.0,-100.00,NW,315,8.0,13.0,98,0.00,,,0.32,6.000000,,2013-12-30 15:02:00,
2013-12-30 10:11:00,28.0,28.0,-100.00,NW,315,8.0,13.0,98,0.00,,,0.32,6.000000,,2013-12-30 15:11:00,
2013-12-30 10:44:00,29.0,27.0,-100.00,NW,317,7.0,18.0,91,0.00,,,0.10,57.000000,,2013-12-30 15:44:00,
2013-12-30 10:54:00,29.0,27.0,-100.00,NW,317,7.0,18.0,91,0.00,,,0.10,57.000000,,2013-12-30 15:54:00,
2013-12-30 11:03:00,29.0,27.0,-100.00,NW,317,7.0,18.0,91,0.00,,,0.10,57.000000,,2013-12-30 16:03:00,
2013-12-30 11:13:00,29.0,27.0,-100.00,NW,317,7.0,18.0,91,0.00,,,0.10,57.000000,,2013-12-30 16:13:00,
2013-12-30 11:43:00,27.0,26.0,-100.00,NW,310,3.0,12.0,97,0.00,,,0.06,22.000000,,2013-12-30 16:43:00,
2013-12-30 11:53:00,27.0,26.0,-100.00,NW,310,3.0,12.0,97,0.00,,,0.06,22.000000,,2013-12-30 16:53:00,
2013-12-30 12:02:00,27.0,26.0,-100.00,NW,310,3.0,12.0,97,0.00,,,0.06,22.000000,,2013-12-30 17:02:00,
2013-12-30 12:12:00,27.0,26.0,-100.00,NW,310,3.0,12.0,97,0.00,,,0.06,22.000000,,2013-12-30 17:12:00,
2013-12-30 12:43:00,27.0,26.0,-100.00,NW,314,6.0,11.0,94,0.00,,,0.06,32.000000,,2013-12-30 17:43:00,
2013-12-30 12:52:00,27.0,26.0,-100.00,NW,314,6.0,11.0,94,0.00,,,0.06,32.000000,,2013-12-30 17:52:00,
2013-12-30 13:02:00,27.0,26.0,-100.00,NW,314,6.0,11.0,94,0.00,,,0.06,32.000000,,2013-12-30 18:02:00,
2013-12-30 13:12:00,27.0,26.0,-100.00,NW,314,6.0,11.0,94,0.00,,,0.06,32.000000,,2013-12-30 18:12:00,
2013-12-30 13:43:00,28.0,24.0,-100.00,NW,314,7.0,16.0,86,0.00,,,0.03,104.000000,,2013-12-30 18:43:00,
2013-12-30 13:52:00,28.0,24.0,-100.00,NW,314,7.0,16.0,86,0.00,,,0.03,104.000000,,2013-12-30 18:52:00,
2013-12-30 14:02:00,28.0,24.0,-100.00,NW,314,7.0,16.0,86,0.00,,,0.03,104.000000,,2013-12-30 19:02:00,
2013-12-30 14:12:00,28.0,24.0,-100.00,NW,314,7.0,16.0,86,0.00,,,0.03,104.000000,,2013-12-30 19:12:00,
2013-12-30 14:42:00,26.0,23.0,-100.00,NW,315,5.0,15.0,89,0.00,,,0.00,88.000000,,2013-12-30 19:42:00,
2013-12-30 14:52:00,26.0,23.0,-100.00,NW,315,5.0,15.0,89,0.00,,,0.00,88.000000,,2013-12-30 19:52:00,
2013-12-30 15:02:00,26.0,23.0,-100.00,NW,315,5.0,15.0,89,0.00,,,0.00,88.000000,,2013-12-30 20:02:00,
2013-12-30 15:11:00,26.0,23.0,-100.00,NW,315,5.0,15.0,89,0.00,,,0.00,88.000000,,2013-12-30 20:11:00,
2013-12-30 15:42:00,27.0,22.0,-100.00,NW,311,6.0,17.0,80,0.00,,,0.00,73.000000,,2013-12-30 20:42:00,
2013-12-30 15:52:00,27.0,22.0,-100.00,NW,311,6.0,17.0,80,0.00,,,0.00,73.000000,,2013-12-30 20:52:00,
2013-12-30 16:02:00,27.0,22.0,-100.00,NW,311,6.0,17.0,80,0.00,,,0.00,73.000000,,2013-12-30 21:02:00,
2013-12-30 16:11:00,27.0,22.0,-100.00,NW,311,6.0,17.0,80,0.00,,,0.00,73.000000,,2013-12-30 21:11:00,
2013-12-30 16:44:00,24.0,18.0,-100.00,NW,310,4.0,14.0,78,0.00,,,0.00,42.000000,,2013-12-30 21:44:00,
2013-12-30 16:54:00,24.0,18.0,-100.00,NW,310,4.0,14.0,78,0.00,,,0.00,42.000000,,2013-12-30 21:54:00,
2013-12-30 17:03:00,24.0,18.0,-100.00,NW,310,4.0,14.0,78,0.00,,,0.00,42.000000,,2013-12-30 22:03:00,
2013-12-30 17:13:00,24.0,18.0,-100.00,NW,310,4.0,14.0,78,0.00,,,0.00,42.000000,,2013-12-30 22:13:00,
2013-12-30 17:43:00,22.0,21.0,-100.00,NW,324,4.0,8.0,95,0.00,,,0.00,2.000000,,2013-12-30 22:43:00,
2013-12-30 17:53:00,22.0,21.0,-100.00,NW,324,4.0,8.0,95,0.00,,,0.00,2.000000,,2013-12-30 22:53:00,
2013-12-30 18:02:00,22.0,21.0,-100.00,NW,324,4.0,8.0,95,0.00,,,0.00,2.000000,,2013-12-30 23:02:00,
2013-12-30 18:12:00,22.0,21.0,-100.00,NW,324,4.0,8.0,95,0.00,,,0.00,2.000000,,2013-12-30 23:12:00,
2013-12-30 18:42:00,22.0,21.0,-100.00,NW,310,4.0,7.0,95,0.00,,,0.00,0.000000,,2013-12-30 23:42:00,
2013-12-30 18:53:00,22.0,21.0,-100.00,NW,310,4.0,7.0,95,0.00,,,0.00,0.000000,,2013-12-30 23:53:00,
2013-12-30 19:02:00,22.0,21.0,-100.00,NW,310,4.0,7.0,95,0.00,,,0.00,0.000000,,2013-12-31 00:02:00,
2013-12-30 19:12:00,22.0,21.0,-100.00,NW,310,4.0,7.0,95,0.00,,,0.00,0.000000,,2013-12-31 00:12:00,
2013-12-30 19:42:00,21.0,19.0,-100.00,NW,315,3.0,7.0,93,0.00,,,0.00,0.000000,,2013-12-31 00:42:00,
2013-12-30 19:52:00,21.0,19.0,-100.00,NW,315,3.0,7.0,93,0.00,,,0.00,0.000000,,2013-12-31 00:52:00,
2013-12-30 20:02:00,21.0,19.0,-100.00,NW,315,3.0,7.0,93,0.00,,,0.00,0.000000,,2013-12-31 01:02:00,
2013-12-30 20:12:00,21.0,19.0,-100.00,NW,315,3.0,7.0,93,0.00,,,0.00,0.000000,,2013-12-31 01:12:00,
2013-12-30 20:42:00,21.0,19.0,-100.00,NW,318,2.0,7.0,92,0.00,,,0.00,0.000000,,2013-12-31 01:42:00,
2013-12-30 20:52:00,21.0,19.0,-100.00,NW,318,2.0,7.0,92,0.00,,,0.00,0.000000,,2013-12-31 01:52:00,
2013-12-30 21:02:00,21.0,19.0,-100.00,NW,318,2.0,7.0,92,0.00,,,0.00,0.000000,,2013-12-31 02:02:00,
2013-12-30 21:12:00,21.0,19.0,-100.00,NW,318,2.0,7.0,92,0.00,,,0.00,0.000000,,2013-12-31 02:12:00,
2013-12-30 21:42:00,21.0,18.0,-100.00,NW,309,4.0,9.0,88,0.00,,,0.00,0.000000,,2013-12-31 02:42:00,
2013-12-30 21:53:00,21.0,18.0,-100.00,NW,309,4.0,9.0,88,0.00,,,0.00,0.000000,,2013-12-31 02:53:00,
2013-12-30 22:02:00,21.0,18.0,-100.00,NW,309,4.0,9.0,88,0.00,,,0.00,0.000000,,2013-12-31 03:02:00,
2013-12-30 22:11:00,21.0,18.0,-100.00,NW,309,4.0,9.0,88,0.00,,,0.00,0.000000,,2013-12-31 03:11:00,
2013-12-30 22:54:00,22.0,18.0,-100.00,NW,310,3.0,7.0,85,0.00,,,0.00,0.000000,,2013-12-31 03:54:00,
2013-12-30 23:03:00,22.0,18.0,-100.00,NW,310,3.0,7.0,85,0.00,,,0.00,0.000000,,2013-12-31 04:03:00,
2013-12-30 23:13:00,22.0,18.0,-100.00,NW,310,3.0,7.0,85,0.00,,,0.00,0.000000,,2013-12-31 04:13:00,
2013-12-30 23:43:00,22.0,17.0,-100.00,NW,309,6.0,11.0,80,0.00,,,0.00,0.000000,,2013-12-31 04:43:00,
2013-12-30 23:53:00,22.0,17.0,-100.00,NW,309,6.0,11.0,80,0.00,,,0.00,0.000000,,2013-12-31 04:53:00,